Time,TemperatureF,DewpointF,PressureIn,WindDirection,WindDirectionDegrees,WindSpeedMPH,WindSpeedGustMPH,Humidity,HourlyPrecipIn,Conditions,Clouds,dailyrainin,SoftwareType,DateUTC
2013-09-04 00:05:00,49.5,45.4,29.32,North,-999,-999.0,-999.0,86,-99.99,,,-99.99,Acu-Link.com,2013-09-04 08:05:00,
2013-09-04 00:20:00,49.5,45.4,29.32,North,-999,-999.0,-999.0,86,-99.99,,,-99.99,Acu-Link.com,2013-09-04 08:20:00,
2013-09-04 00:35:00,49.6,45.9,29.32,North,-999,-999.0,-999.0,87,-99.99,,,-99.99,Acu-Link.com,2013-09-04 08:35:00,
2013-09-04 00:51:00,49.1,45.7,29.33,North,-999,-999.0,-999.0,88,-99.99,,,-99.99,Acu-Link.com,2013-09-04 08:51:00,
2013-09-04 01:06:00,48.9,45.8,29.34,North,-999,-999.0,-999.0,89,-99.99,,,-99.99,Acu-Link.com,2013-09-04 09:06:00,
2013-09-04 01:21:00,48.7,45.9,29.34,North,-999,-999.0,-999.0,90,-99.99,,,-99.99,Acu-Link.com,2013-09-04 09:21:00,
2013-09-04 01:36:00,48.4,45.9,29.35,North,-999,-999.0,-999.0,91,-99.99,,,-99.99,Acu-Link.com,2013-09-04 09:36:00,
2013-09-04 01:51:00,48.2,45.7,29.36,North,-999,-999.0,-999.0,91,-99.99,,,-99.99,Acu-Link.com,2013-09-04 09:51:00,
2013-09-04 02:06:00,47.8,45.6,29.35,North,-999,-999.0,-999.0,92,-99.99,,,-99.99,Acu-Link.com,2013-09-04 10:06:00,
2013-09-04 02:21:00,47.7,45.7,29.35,North,-999,-999.0,-999.0,93,-99.99,,,-99.99,Acu-Link.com,2013-09-04 10:21:00,
2013-09-04 02:36:00,47.3,45.1,29.35,North,-999,-999.0,-999.0,92,-99.99,,,-99.99,Acu-Link.com,2013-09-04 10:36:00,
2013-09-04 02:52:00,46.9,45.0,29.35,North,-999,-999.0,-999.0,93,-99.99,,,-99.99,Acu-Link.com,2013-09-04 10:52:00,
2013-09-04 03:07:00,46.8,44.8,29.34,North,-999,-999.0,-999.0,93,-99.99,,,-99.99,Acu-Link.com,2013-09-04 11:07:00,
2013-09-04 03:22:00,46.8,44.8,29.34,North,-999,-999.0,-999.0,93,-99.99,,,-99.99,Acu-Link.com,2013-09-04 11:22:00,
2013-09-04 03:37:00,46.9,45.0,29.34,North,-999,-999.0,-999.0,93,-99.99,,,-99.99,Acu-Link.com,2013-09-04 11:37:00,
2013-09-04 03:52:00,46.8,44.8,29.35,North,-999,-999.0,-999.0,93,-99.99,,,-99.99,Acu-Link.com,2013-09-04 11:52:00,
2013-09-04 04:08:00,46.8,44.8,29.36,North,-999,-999.0,-999.0,93,-99.99,,,-99.99,Acu-Link.com,2013-09-04 12:08:00,
2013-09-04 04:23:00,46.4,44.5,29.36,North,-999,-999.0,-999.0,93,-99.99,,,-99.99,Acu-Link.com,2013-09-04 12:23:00,
2013-09-04 04:38:00,46.4,44.5,29.36,North,-999,-999.0,-999.0,93,-99.99,,,-99.99,Acu-Link.com,2013-09-04 12:38:00,
2013-09-04 04:53:00,46.4,44.5,29.36,North,-999,-999.0,-999.0,93,-99.99,,,-99.99,Acu-Link.com,2013-09-04 12:53:00,
2013-09-04 05:08:00,46.2,44.6,29.35,North,-999,-999.0,-999.0,94,-99.99,,,-99.99,Acu-Link.com,2013-09-04 13:08:00,
2013-09-04 05:24:00,46.2,44.6,29.35,North,-999,-999.0,-999.0,94,-99.99,,,-99.99,Acu-Link.com,2013-09-04 13:24:00,
2013-09-04 05:39:00,46.4,44.8,29.35,North,-999,-999.0,-999.0,94,-99.99,,,-99.99,Acu-Link.com,2013-09-04 13:39:00,
2013-09-04 05:54:00,46.4,44.8,29.35,North,-999,-999.0,-999.0,94,-99.99,,,-99.99,Acu-Link.com,2013-09-04 13:54:00,
2013-09-04 06:10:00,46.4,44.8,29.35,North,-999,-999.0,-999.0,94,-99.99,,,-99.99,Acu-Link.com,2013-09-04 14:10:00,
2013-09-04 06:25:00,46.0,44.7,29.35,North,-999,-999.0,-999.0,95,-99.99,,,-99.99,Acu-Link.com,2013-09-04 14:25:00,
2013-09-04 06:40:00,45.9,44.5,29.35,North,-999,-999.0,-999.0,95,-99.99,,,-99.99,Acu-Link.com,2013-09-04 14:40:00,
2013-09-04 06:55:00,45.7,44.3,29.35,North,-999,-999.0,-999.0,95,-99.99,,,-99.99,Acu-Link.com,2013-09-04 14:55:00,
2013-09-04 07:11:00,45.5,44.2,29.36,North,-999,-999.0,-999.0,95,-99.99,,,-99.99,Acu-Link.com,2013-09-04 15:11:00,
2013-09-04 07:26:00,45.7,44.3,29.36,North,-999,-999.0,-999.0,95,-99.99,,,-99.99,Acu-Link.com,2013-09-04 15:26:00,
2013-09-04 07:41:00,46.0,44.7,29.35,North,-999,-999.0,-999.0,95,-99.99,,,-99.99,Acu-Link.com,2013-09-04 15:41:00,
2013-09-04 07:56:00,46.0,44.4,29.35,North,-999,-999.0,-999.0,94,-99.99,,,-99.99,Acu-Link.com,2013-09-04 15:56:00,
2013-09-04 08:11:00,46.2,44.6,29.34,North,-999,-999.0,-999.0,94,-99.99,,,-99.99,Acu-Link.com,2013-09-04 16:11:00,
2013-09-04 08:26:00,46.4,44.5,29.35,North,-999,-999.0,-999.0,93,-99.99,,,-99.99,Acu-Link.com,2013-09-04 16:26:00,
2013-09-04 08:42:00,46.8,44.8,29.35,North,-999,-999.0,-999.0,93,-99.99,,,-99.99,Acu-Link.com,2013-09-04 16:42:00,
2013-09-04 08:57:00,46.9,44.7,29.35,North,-999,-999.0,-999.0,92,-99.99,,,-99.99,Acu-Link.com,2013-09-04 16:57:00,
2013-09-04 09:12:00,47.3,45.1,29.35,North,-999,-999.0,-999.0,92,-99.99,,,-99.99,Acu-Link.com,2013-09-04 17:12:00,
2013-09-04 09:28:00,47.3,45.1,29.35,North,-999,-999.0,-999.0,92,-99.99,,,-99.99,Acu-Link.com,2013-09-04 17:28:00,
2013-09-04 09:43:00,47.3,44.8,29.35,North,-999,-999.0,-999.0,91,-99.99,,,-99.99,Acu-Link.com,2013-09-04 17:43:00,
2013-09-04 09:58:00,47.1,44.6,29.36,North,-999,-999.0,-999.0,91,-99.99,,,-99.99,Acu-Link.com,2013-09-04 17:58:00,
2013-09-04 10:13:00,46.9,44.7,29.36,North,-999,-999.0,-999.0,92,-99.99,,,-99.99,Acu-Link.com,2013-09-04 18:13:00,
2013-09-04 10:28:00,46.9,44.7,29.37,North,-999,-999.0,-999.0,92,-99.99,,,-99.99,Acu-Link.com,2013-09-04 18:28:00,
2013-09-04 10:43:00,46.8,44.3,29.37,North,-999,-999.0,-999.0,91,-99.99,,,-99.99,Acu-Link.com,2013-09-04 18:43:00,
2013-09-04 10:59:00,46.6,44.1,29.37,North,-999,-999.0,-999.0,91,-99.99,,,-99.99,Acu-Link.com,2013-09-04 18:59:00,
2013-09-04 11:14:00,46.8,44.6,29.37,North,-999,-999.0,-999.0,92,-99.99,,,-99.99,Acu-Link.com,2013-09-04 19:14:00,
2013-09-04 11:29:00,47.3,45.1,29.37,North,-999,-999.0,-999.0,92,-99.99,,,-99.99,Acu-Link.com,2013-09-04 19:29:00,
2013-09-04 11:45:00,48.0,45.8,29.37,North,-999,-999.0,-999.0,92,-99.99,,,-99.99,Acu-Link.com,2013-09-04 19:45:00,
2013-09-04 12:00:00,48.7,46.8,29.38,North,-999,-999.0,-999.0,93,-99.99,,,-99.99,Acu-Link.com,2013-09-04 20:00:00,
2013-09-04 12:15:00,50.0,47.8,29.39,North,-999,-999.0,-999.0,92,-99.99,,,-99.99,Acu-Link.com,2013-09-04 20:15:00,
2013-09-04 12:30:00,49.8,47.9,29.41,North,-999,-999.0,-999.0,93,-99.99,,,-99.99,Acu-Link.com,2013-09-04 20:30:00,
2013-09-04 12:45:00,49.1,47.2,29.42,North,-999,-999.0,-999.0,93,-99.99,,,-99.99,Acu-Link.com,2013-09-04 20:45:00,
2013-09-04 13:00:00,48.7,46.8,29.43,North,-999,-999.0,-999.0,93,-99.99,,,-99.99,Acu-Link.com,2013-09-04 21:00:00,
2013-09-04 13:15:00,48.2,46.3,29.42,North,-999,-999.0,-999.0,93,-99.99,,,-99.99,Acu-Link.com,2013-09-04 21:15:00,
2013-09-04 13:31:00,49.5,47.8,29.42,North,-999,-999.0,-999.0,94,-99.99,,,-99.99,Acu-Link.com,2013-09-04 21:31:00,
2013-09-04 13:46:00,50.5,48.6,29.41,North,-999,-999.0,-999.0,93,-99.99,,,-99.99,Acu-Link.com,2013-09-04 21:46:00,
2013-09-04 14:01:00,51.1,49.1,29.42,North,-999,-999.0,-999.0,93,-99.99,,,-99.99,Acu-Link.com,2013-09-04 22:01:00,
2013-09-04 14:16:00,51.6,49.7,29.43,North,-999,-999.0,-999.0,93,-99.99,,,-99.99,Acu-Link.com,2013-09-04 22:16:00,
2013-09-04 14:31:00,52.3,50.4,29.43,North,-999,-999.0,-999.0,93,-99.99,,,-99.99,Acu-Link.com,2013-09-04 22:31:00,
2013-09-04 14:46:00,53.6,51.6,29.43,North,-999,-999.0,-999.0,93,-99.99,,,-99.99,Acu-Link.com,2013-09-04 22:46:00,
2013-09-04 15:01:00,54.7,51.8,29.43,North,-999,-999.0,-999.0,90,-99.99,,,-99.99,Acu-Link.com,2013-09-04 23:01:00,
2013-09-04 15:16:00,53.4,50.3,29.44,North,-999,-999.0,-999.0,89,-99.99,,,-99.99,Acu-Link.com,2013-09-04 23:16:00,
2013-09-04 15:31:00,52.9,49.4,29.45,North,-999,-999.0,-999.0,88,-99.99,,,-99.99,Acu-Link.com,2013-09-04 23:31:00,
2013-09-04 15:47:00,52.3,49.2,29.46,North,-999,-999.0,-999.0,89,-99.99,,,-99.99,Acu-Link.com,2013-09-04 23:47:00,
2013-09-04 16:02:00,52.9,49.7,29.45,North,-999,-999.0,-999.0,89,-99.99,,,-99.99,Acu-Link.com,2013-09-05 00:02:00,
2013-09-04 16:17:00,53.1,49.9,29.46,North,-999,-999.0,-999.0,89,-99.99,,,-99.99,Acu-Link.com,2013-09-05 00:17:00,
2013-09-04 16:32:00,52.2,48.4,29.46,North,-999,-999.0,-999.0,87,-99.99,,,-99.99,Acu-Link.com,2013-09-05 00:32:00,
2013-09-04 16:47:00,51.6,47.9,29.47,North,-999,-999.0,-999.0,87,-99.99,,,-99.99,Acu-Link.com,2013-09-05 00:47:00,
2013-09-04 17:02:00,51.3,47.5,29.47,North,-999,-999.0,-999.0,87,-99.99,,,-99.99,Acu-Link.com,2013-09-05 01:02:00,
2013-09-04 17:17:00,51.3,47.8,29.47,North,-999,-999.0,-999.0,88,-99.99,,,-99.99,Acu-Link.com,2013-09-05 01:17:00,
2013-09-04 17:32:00,51.3,47.5,29.48,North,-999,-999.0,-999.0,87,-99.99,,,-99.99,Acu-Link.com,2013-09-05 01:32:00,
2013-09-04 17:47:00,52.0,48.2,29.47,North,-999,-999.0,-999.0,87,-99.99,,,-99.99,Acu-Link.com,2013-09-05 01:47:00,
2013-09-04 18:02:00,52.2,48.4,29.48,North,-999,-999.0,-999.0,87,-99.99,,,-99.99,Acu-Link.com,2013-09-05 02:02:00,
2013-09-04 18:18:00,52.2,48.7,29.48,North,-999,-999.0,-999.0,88,-99.99,,,-99.99,Acu-Link.com,2013-09-05 02:18:00,
2013-09-04 18:33:00,52.2,48.4,29.49,North,-999,-999.0,-999.0,87,-99.99,,,-99.99,Acu-Link.com,2013-09-05 02:33:00,
2013-09-04 18:48:00,52.0,48.2,29.50,North,-999,-999.0,-999.0,87,-99.99,,,-99.99,Acu-Link.com,2013-09-05 02:48:00,
2013-09-04 19:03:00,51.8,48.1,29.51,North,-999,-999.0,-999.0,87,-99.99,,,-99.99,Acu-Link.com,2013-09-05 03:03:00,
2013-09-04 19:19:00,51.6,47.9,29.51,North,-999,-999.0,-999.0,87,-99.99,,,-99.99,Acu-Link.com,2013-09-05 03:19:00,
2013-09-04 19:34:00,51.3,47.5,29.51,North,-999,-999.0,-999.0,87,-99.99,,,-99.99,Acu-Link.com,2013-09-05 03:34:00,
2013-09-04 19:49:00,50.9,47.2,29.52,North,-999,-999.0,-999.0,87,-99.99,,,-99.99,Acu-Link.com,2013-09-05 03:49:00,
2013-09-04 20:04:00,50.4,46.6,29.53,North,-999,-999.0,-999.0,87,-99.99,,,-99.99,Acu-Link.com,2013-09-05 04:04:00,
2013-09-04 20:20:00,49.6,45.9,29.54,North,-999,-999.0,-999.0,87,-99.99,,,-99.99,Acu-Link.com,2013-09-05 04:20:00,
2013-09-04 20:35:00,48.9,45.5,29.55,North,-999,-999.0,-999.0,88,-99.99,,,-99.99,Acu-Link.com,2013-09-05 04:35:00,
2013-09-04 20:50:00,48.2,44.8,29.55,North,-999,-999.0,-999.0,88,-99.99,,,-99.99,Acu-Link.com,2013-09-05 04:50:00,
2013-09-04 21:05:00,47.5,44.1,29.56,North,-999,-999.0,-999.0,88,-99.99,,,-99.99,Acu-Link.com,2013-09-05 05:05:00,
2013-09-04 21:21:00,46.9,43.6,29.56,North,-999,-999.0,-999.0,88,-99.99,,,-99.99,Acu-Link.com,2013-09-05 05:21:00,
2013-09-04 21:36:00,46.6,43.2,29.57,North,-999,-999.0,-999.0,88,-99.99,,,-99.99,Acu-Link.com,2013-09-05 05:36:00,
2013-09-04 21:51:00,46.2,42.9,29.57,North,-999,-999.0,-999.0,88,-99.99,,,-99.99,Acu-Link.com,2013-09-05 05:51:00,
2013-09-04 22:06:00,45.9,42.5,29.57,North,-999,-999.0,-999.0,88,-99.99,,,-99.99,Acu-Link.com,2013-09-05 06:06:00,
2013-09-04 22:21:00,45.9,42.5,29.57,North,-999,-999.0,-999.0,88,-99.99,,,-99.99,Acu-Link.com,2013-09-05 06:21:00,
2013-09-04 22:36:00,45.5,42.2,29.58,North,-999,-999.0,-999.0,88,-99.99,,,-99.99,Acu-Link.com,2013-09-05 06:36:00,
2013-09-04 22:51:00,45.3,42.0,29.59,North,-999,-999.0,-999.0,88,-99.99,,,-99.99,Acu-Link.com,2013-09-05 06:51:00,
2013-09-04 23:06:00,45.0,41.6,29.59,North,-999,-999.0,-999.0,88,-99.99,,,-99.99,Acu-Link.com,2013-09-05 07:06:00,
2013-09-04 23:21:00,45.0,41.9,29.60,North,-999,-999.0,-999.0,89,-99.99,,,-99.99,Acu-Link.com,2013-09-05 07:21:00,
2013-09-04 23:36:00,45.1,42.1,29.61,North,-999,-999.0,-999.0,89,-99.99,,,-99.99,Acu-Link.com,2013-09-05 07:36:00,
2013-09-04 23:51:00,45.3,42.3,29.61,North,-999,-999.0,-999.0,89,-99.99,,,-99.99,Acu-Link.com,2013-09-05 07:51:00,